Nearby METAR Reports

 

KMLI - Moline/Quad City, Illinois, USA
Distance from station: ENE 4mi, 7km
Updated: 11/27/2020 12:52pm
Partly cloudy
Partly cloudy
 Wind from WNW
Wind: WNW 8 mph , 13 km/h
Temperature: 41°F , 5°C
Wind Chill: 36°F , 2°C
Dew Point: 34°F , 1°C
Humidity: 76%
Barometer: 30.14 inHg , 1020.7 hPa
Clouds: Partly cloudy
Visibility: 10 miles , 16 km
Cloud details: Partly cloudy 1400 ft
2020/11/27 18:52 KMLI 271852Z 29007KT 10SM SCT014 05/01 A3014 RMK AO2 SLP212 T00500006
KDVN - Davenport/Quad C, Iowa, USA
Distance from station: N 14mi, 22km
Updated: 11/27/2020 12:52pm
Partly cloudy
Partly cloudy
 Wind from WNW
Wind: WNW 15 mph , 24 km/h
Temperature: 39°F , 4°C
Wind Chill: 31°F , -1°C
Dew Point: 34°F , 1°C
Humidity: 81%
Barometer: 30.16 inHg , 1021.3 hPa
Clouds: Partly cloudy
Visibility: 9 miles , 14 km
Cloud details: Partly cloudy 1100 ft
2020/11/27 18:52 KDVN 271852Z AUTO 29013KT 9SM SCT011 04/01 A3016 RMK AO2 SLP216 T00440006
 
KMUT - Muscatine, Iowa, USA
Distance from station: W 29mi, 47km
Updated: 11/27/2020 1:35pm
Clear
Clear
 Wind from WNW
Wind: WNW 12 mph , 19 km/h
Temperature: 45°F , 7°C
Wind Chill: 39°F , 4°C
Dew Point: 32°F , 0°C
Humidity: 61%
Barometer: 30.16 inHg , 1021.3 hPa
Clouds: Clear
Visibility: 10 miles , 16 km
2020/11/27 19:35 KMUT 271935Z AUTO 30010KT 10SM CLR 07/00 A3016 RMK AO2
KCWI - Clinton Muni, Iowa, USA
Distance from station: NNE 31mi, 50km
Updated: 11/27/2020 1:09pm
Partly cloudy
Partly cloudy
 Wind from WNW
Wind: WNW 14 mph , 22 km/h
Temperature: 41°F , 5°C
Wind Chill: 33°F , 1°C
Dew Point: 36°F , 2°C
Humidity: 81%
Barometer: 30.13 inHg , 1020.3 hPa
Clouds: Partly cloudy
Visibility: 10 miles , 16 km
Cloud details: Partly cloudy 1200 ft
2020/11/27 19:09 KCWI 271909Z AUTO 29012KT 10SM SCT012 05/02 A3013 RMK AO2
 
KGBG - Galesburg, Illinois, USA
Distance from station: SSE 35mi, 56km
Updated: 11/27/2020 1:35pm
Mostly cloudy
Mostly cloudy
 Wind from W
Wind: W 12 mph , 19 km/h
Temperature: 39°F , 4°C
Wind Chill: 32°F , 0°C
Dew Point: 32°F , 0°C
Humidity: 75%
Barometer: 30.16 inHg , 1021.3 hPa
Clouds: Mostly cloudy
Visibility: 10 miles , 16 km
Cloud details: Mostly cloudy 1300 ft
2020/11/27 19:35 KGBG 271935Z AUTO 28010KT 10SM BKN013 04/00 A3016 RMK AO2 P0027 T00360001
KSFY - Savanna/Tritown, Illinois, USA
Distance from station: NNE 50mi, 80km
Updated: 11/27/2020 1:35pm
Clear
Clear
 Wind from W
Wind: W 12 mph , 19 km/h
Temperature: 43°F , 6°C
Wind Chill: 37°F , 3°C
Dew Point: 32°F , 0°C
Humidity: 66%
Barometer: 30.11 inHg , 1019.6 hPa
Clouds: Clear
Visibility: 10 miles , 16 km
2020/11/27 19:35 KSFY 271935Z AUTO 28010KT 10SM CLR 06/00 A3011 RMK AO2